METAR AND TAF INFORMATION
METAR FOR LIEA
ADDS - METARS form results

(0318 UTC 30 March 2020)
Data provider http://aviationweather.gov/metar/data/
 
METAR text: LIEA 300250Z 19006KT 9999 FEW015 13/11 Q1011
Conditions at: LIEA (ALGHERO , IT) observed 0250 UTC 30 March 2020
Temperature: 13.0°C (55°F)
Dewpoint: 11.0°C (52°F) [RH = 88%]
Pressure (altimeter): 29.85 inches Hg (1011.0 mb)
Winds: from the S (190 degrees) at 7 MPH (6 knots; 3.1 m/s)
Visibility: 6 or more miles (10+ km)
Ceiling: at least 12,000 feet AGL
Clouds: few clouds at 1500 feet AGL
Weather: no significant weather observed at this time

METAR text: LIEA 300220Z 19003KT 150V220 9999 FEW025 12/11 Q1011
Conditions at: LIEA (ALGHERO , IT) observed 0220 UTC 30 March 2020
Temperature: 12.0°C (54°F)
Dewpoint: 11.0°C (52°F) [RH = 94%]
Pressure (altimeter): 29.85 inches Hg (1011.0 mb)
Winds: from the S (190 degrees) at 3 MPH (3 knots; 1.5 m/s)
Visibility: 6 or more miles (10+ km)
Ceiling: at least 12,000 feet AGL
Clouds: few clouds at 2500 feet AGL
Weather: no significant weather observed at this time

Forecast for: LIEA (ALGHERO , IT)
Text: TAF LIEA 291700Z 2918/3018 21010KT 9999 SCT020
Forecast period: 1800 UTC 29 March 2020 to 0000 UTC 30 March 2020
Forecast type: FROM: standard forecast or significant change
Winds: from the SSW (210 degrees) at 12 MPH (10 knots; 5.1 m/s)
Visibility: 6 or more miles 10+ km)
Ceiling: at least 12,000 feet AGL
Clouds: scattered clouds at 2000 feet AGL
Weather: no significant weather forecast for this period
Text: BECMG 3000/3002 VRB05KT
Forecast period: 0000 to 1000 UTC 30 March 2020
Forecast type: BECOMING: Conditions expected to become as follows by 0200 UTC 30 March 2020
Winds: variable direction winds at 6 MPH (5 knots; 2.6 m/s)
Visibility: 6 or more miles 10+ km)
Ceiling: at least 12,000 feet AGL
Clouds: scattered clouds at 2000 feet AGL
Weather: no significant weather forecast for this period
Text: BECMG 3010/3012 30010KT
Forecast period: 1000 to 1800 UTC 30 March 2020
Forecast type: BECOMING: Conditions expected to become as follows by 1200 UTC 30 March 2020
Winds: from the WNW (300 degrees) at 12 MPH (10 knots; 5.1 m/s)
Visibility: 6 or more miles 10+ km)
Ceiling: at least 12,000 feet AGL
Clouds: scattered clouds at 2000 feet AGL
Weather: no significant weather forecast for this period

 AIRPORT MAP

 RUNWAY INFORMATION
Runway 02 Runway length 9843 ft Runway width 148 ft
Runway elevation 69 ft Runway displaced threshold 0 ft Runway heading 25
Runway 20 Runway length 9843 ft Runway width 148 ft
Runway elevation 87 ft Runway displaced threshold 0 ft Runway heading 205

 AIRPORT FREQUENCIES
Type APP Name APP Frequency 128.55 MHZ
Type ATIS Name ATIS Frequency 125.025 MHZ
Type TWR Name TWR Frequency 118.85 MHZ

 AIRPORT NEAR NAVIGATION AIDS
Type TACAN Name Alghero Frequency 109300 KHZ
Type VORTAC Name Alghero Frequency 113800 KHZ
Type NDB Name Alghero Frequency 382 KHZ



Powered by Virtual Airlines Manager [v2.6.2]